sensor_id;sensor_type;location;lat;lon;timestamp;P1;durP1;ratioP1;P2;durP2;ratioP2
26946;SDS011;14501;52.282;10.560;2023-01-29T00:02:19;21.17;;;12.30;;
26946;SDS011;14501;52.282;10.560;2023-01-29T00:04:45;23.08;;;13.10;;
26946;SDS011;14501;52.282;10.560;2023-01-29T00:07:10;21.75;;;11.93;;
26946;SDS011;14501;52.282;10.560;2023-01-29T00:09:36;19.52;;;12.43;;
26946;SDS011;14501;52.282;10.560;2023-01-29T00:12:02;27.27;;;12.90;;
26946;SDS011;14501;52.282;10.560;2023-01-29T00:14:27;23.58;;;11.90;;
26946;SDS011;14501;52.282;10.560;2023-01-29T00:16:53;19.67;;;11.90;;
26946;SDS011;14501;52.282;10.560;2023-01-29T00:19:18;24.67;;;11.77;;
26946;SDS011;14501;52.282;10.560;2023-01-29T00:21:44;19.75;;;11.98;;
26946;SDS011;14501;52.282;10.560;2023-01-29T00:24:10;22.52;;;11.90;;
26946;SDS011;14501;52.282;10.560;2023-01-29T00:26:36;21.25;;;11.88;;
26946;SDS011;14501;52.282;10.560;2023-01-29T00:29:04;20.38;;;11.77;;
26946;SDS011;14501;52.282;10.560;2023-01-29T00:31:30;16.45;;;10.80;;
26946;SDS011;14501;52.282;10.560;2023-01-29T00:33:56;20.13;;;11.50;;
26946;SDS011;14501;52.282;10.560;2023-01-29T00:36:22;19.13;;;11.02;;
26946;SDS011;14501;52.282;10.560;2023-01-29T00:38:56;21.02;;;11.55;;
26946;SDS011;14501;52.282;10.560;2023-01-29T00:41:22;20.55;;;11.65;;
26946;SDS011;14501;52.282;10.560;2023-01-29T00:44:10;19.85;;;11.25;;
26946;SDS011;14501;52.282;10.560;2023-01-29T00:46:54;20.23;;;11.88;;
26946;SDS011;14501;52.282;10.560;2023-01-29T00:49:19;23.05;;;12.18;;
26946;SDS011;14501;52.282;10.560;2023-01-29T00:51:45;18.38;;;10.80;;
26946;SDS011;14501;52.282;10.560;2023-01-29T00:54:33;18.90;;;11.00;;
26946;SDS011;14501;52.282;10.560;2023-01-29T00:57:00;18.58;;;11.77;;
26946;SDS011;14501;52.282;10.560;2023-01-29T00:59:26;17.85;;;11.85;;
26946;SDS011;14501;52.282;10.560;2023-01-29T01:01:52;18.33;;;11.07;;
26946;SDS011;14501;52.282;10.560;2023-01-29T01:04:36;19.75;;;11.38;;
26946;SDS011;14501;52.282;10.560;2023-01-29T01:07:02;22.13;;;11.45;;
26946;SDS011;14501;52.282;10.560;2023-01-29T01:09:27;21.20;;;12.18;;
26946;SDS011;14501;52.282;10.560;2023-01-29T01:12:11;20.83;;;11.85;;
26946;SDS011;14501;52.282;10.560;2023-01-29T01:14:37;21.27;;;11.70;;
26946;SDS011;14501;52.282;10.560;2023-01-29T01:17:02;19.70;;;11.63;;
26946;SDS011;14501;52.282;10.560;2023-01-29T01:19:28;19.98;;;11.98;;
26946;SDS011;14501;52.282;10.560;2023-01-29T01:21:53;21.20;;;11.20;;
26946;SDS011;14501;52.282;10.560;2023-01-29T01:24:19;22.05;;;11.90;;
26946;SDS011;14501;52.282;10.560;2023-01-29T01:26:45;21.58;;;11.75;;
26946;SDS011;14501;52.282;10.560;2023-01-29T01:29:10;19.30;;;11.50;;
26946;SDS011;14501;52.282;10.560;2023-01-29T01:31:36;21.30;;;12.20;;
26946;SDS011;14501;52.282;10.560;2023-01-29T01:34:02;19.85;;;11.32;;
26946;SDS011;14501;52.282;10.560;2023-01-29T01:36:28;20.05;;;12.55;;
26946;SDS011;14501;52.282;10.560;2023-01-29T01:38:55;19.58;;;11.52;;
26946;SDS011;14501;52.282;10.560;2023-01-29T01:41:21;21.83;;;12.30;;
26946;SDS011;14501;52.282;10.560;2023-01-29T01:43:48;25.52;;;12.68;;
26946;SDS011;14501;52.282;10.560;2023-01-29T01:46:17;18.73;;;11.45;;
26946;SDS011;14501;52.282;10.560;2023-01-29T01:48:43;21.58;;;12.27;;
26946;SDS011;14501;52.282;10.560;2023-01-29T01:51:11;20.27;;;11.35;;
26946;SDS011;14501;52.282;10.560;2023-01-29T01:53:39;20.48;;;11.52;;
26946;SDS011;14501;52.282;10.560;2023-01-29T01:56:10;25.05;;;11.93;;
26946;SDS011;14501;52.282;10.560;2023-01-29T01:58:41;22.77;;;12.70;;
26946;SDS011;14501;52.282;10.560;2023-01-29T02:01:11;20.27;;;11.73;;
26946;SDS011;14501;52.282;10.560;2023-01-29T02:03:39;21.50;;;12.38;;
26946;SDS011;14501;52.282;10.560;2023-01-29T02:06:26;22.85;;;11.15;;
26946;SDS011;14501;52.282;10.560;2023-01-29T02:09:15;28.30;;;12.68;;
26946;SDS011;14501;52.282;10.560;2023-01-29T02:11:57;23.17;;;12.30;;
26946;SDS011;14501;52.282;10.560;2023-01-29T02:14:23;17.50;;;11.18;;
26946;SDS011;14501;52.282;10.560;2023-01-29T02:16:49;19.65;;;11.70;;
26946;SDS011;14501;52.282;10.560;2023-01-29T02:19:17;23.20;;;11.60;;
26946;SDS011;14501;52.282;10.560;2023-01-29T02:21:49;17.40;;;10.38;;
26946;SDS011;14501;52.282;10.560;2023-01-29T02:36:10;25.50;;;11.98;;
26946;SDS011;14501;52.282;10.560;2023-01-29T02:41:14;19.92;;;11.13;;
26946;SDS011;14501;52.282;10.560;2023-01-29T02:44:34;19.67;;;11.82;;
26946;SDS011;14501;52.282;10.560;2023-01-29T02:52:31;23.10;;;11.60;;
26946;SDS011;14501;52.282;10.560;2023-01-29T02:55:24;17.90;;;11.05;;
26946;SDS011;14501;52.282;10.560;2023-01-29T02:57:58;20.13;;;11.60;;
26946;SDS011;14501;52.282;10.560;2023-01-29T03:00:34;26.00;;;12.55;;
26946;SDS011;14501;52.282;10.560;2023-01-29T03:03:06;18.77;;;11.45;;
26946;SDS011;14501;52.282;10.560;2023-01-29T03:05:45;25.83;;;13.15;;
26946;SDS011;14501;52.282;10.560;2023-01-29T03:08:15;18.42;;;11.65;;
26946;SDS011;14501;52.282;10.560;2023-01-29T03:10:50;19.98;;;12.18;;
26946;SDS011;14501;52.282;10.560;2023-01-29T03:16:54;19.30;;;11.27;;
26946;SDS011;14501;52.282;10.560;2023-01-29T03:19:03;23.27;;;11.88;;
26946;SDS011;14501;52.282;10.560;2023-01-29T03:21:37;18.50;;;11.52;;
26946;SDS011;14501;52.282;10.560;2023-01-29T03:27:55;19.83;;;11.93;;
26946;SDS011;14501;52.282;10.560;2023-01-29T03:30:40;19.65;;;11.27;;
26946;SDS011;14501;52.282;10.560;2023-01-29T03:33:28;21.35;;;12.50;;
26946;SDS011;14501;52.282;10.560;2023-01-29T03:36:00;20.67;;;12.05;;
26946;SDS011;14501;52.282;10.560;2023-01-29T03:38:34;24.45;;;12.77;;
26946;SDS011;14501;52.282;10.560;2023-01-29T03:43:40;22.60;;;12.20;;
26946;SDS011;14501;52.282;10.560;2023-01-29T03:46:10;26.77;;;14.30;;
26946;SDS011;14501;52.282;10.560;2023-01-29T03:51:24;23.23;;;13.18;;
26946;SDS011;14501;52.282;10.560;2023-01-29T04:05:17;23.25;;;13.13;;
26946;SDS011;14501;52.282;10.560;2023-01-29T04:07:51;27.25;;;14.18;;
26946;SDS011;14501;52.282;10.560;2023-01-29T04:10:24;22.77;;;14.05;;
26946;SDS011;14501;52.282;10.560;2023-01-29T04:12:55;25.38;;;13.52;;
26946;SDS011;14501;52.282;10.560;2023-01-29T04:15:25;26.35;;;14.35;;
26946;SDS011;14501;52.282;10.560;2023-01-29T04:17:54;26.63;;;13.43;;
26946;SDS011;14501;52.282;10.560;2023-01-29T04:20:20;24.65;;;13.10;;
26946;SDS011;14501;52.282;10.560;2023-01-29T04:22:48;23.75;;;13.63;;
26946;SDS011;14501;52.282;10.560;2023-01-29T04:25:15;20.25;;;12.70;;
26946;SDS011;14501;52.282;10.560;2023-01-29T04:30:43;32.05;;;15.02;;
26946;SDS011;14501;52.282;10.560;2023-01-29T04:33:20;27.13;;;13.88;;
26946;SDS011;14501;52.282;10.560;2023-01-29T04:41:33;25.10;;;13.65;;
26946;SDS011;14501;52.282;10.560;2023-01-29T04:50:12;23.48;;;13.57;;
26946;SDS011;14501;52.282;10.560;2023-01-29T04:52:48;27.42;;;13.73;;
26946;SDS011;14501;52.282;10.560;2023-01-29T04:55:37;25.42;;;13.65;;
26946;SDS011;14501;52.282;10.560;2023-01-29T04:58:07;26.13;;;14.10;;
26946;SDS011;14501;52.282;10.560;2023-01-29T05:03:05;24.25;;;12.77;;
26946;SDS011;14501;52.282;10.560;2023-01-29T05:05:33;24.08;;;13.52;;
26946;SDS011;14501;52.282;10.560;2023-01-29T05:08:00;28.65;;;15.00;;
26946;SDS011;14501;52.282;10.560;2023-01-29T05:10:28;26.33;;;14.95;;
26946;SDS011;14501;52.282;10.560;2023-01-29T05:12:57;28.63;;;14.07;;
26946;SDS011;14501;52.282;10.560;2023-01-29T05:15:29;28.13;;;15.40;;
26946;SDS011;14501;52.282;10.560;2023-01-29T05:18:17;29.33;;;13.95;;
26946;SDS011;14501;52.282;10.560;2023-01-29T05:20:42;30.42;;;15.02;;
26946;SDS011;14501;52.282;10.560;2023-01-29T05:23:18;26.27;;;15.10;;
26946;SDS011;14501;52.282;10.560;2023-01-29T05:25:46;31.92;;;13.50;;
26946;SDS011;14501;52.282;10.560;2023-01-29T05:28:12;27.95;;;14.60;;
26946;SDS011;14501;52.282;10.560;2023-01-29T05:30:45;32.38;;;15.80;;
26946;SDS011;14501;52.282;10.560;2023-01-29T05:33:13;29.90;;;15.13;;
26946;SDS011;14501;52.282;10.560;2023-01-29T05:35:40;28.77;;;15.23;;
26946;SDS011;14501;52.282;10.560;2023-01-29T05:38:06;27.63;;;15.02;;
26946;SDS011;14501;52.282;10.560;2023-01-29T05:40:32;28.75;;;14.65;;
26946;SDS011;14501;52.282;10.560;2023-01-29T05:42:59;31.73;;;15.07;;
26946;SDS011;14501;52.282;10.560;2023-01-29T05:45:25;27.38;;;14.85;;
26946;SDS011;14501;52.282;10.560;2023-01-29T05:47:54;28.80;;;14.82;;
26946;SDS011;14501;52.282;10.560;2023-01-29T05:50:23;30.40;;;14.18;;
26946;SDS011;14501;52.282;10.560;2023-01-29T05:52:57;28.48;;;13.60;;
26946;SDS011;14501;52.282;10.560;2023-01-29T05:57:48;32.45;;;15.27;;
26946;SDS011;14501;52.282;10.560;2023-01-29T06:00:14;28.27;;;14.85;;
26946;SDS011;14501;52.282;10.560;2023-01-29T06:02:40;30.08;;;15.30;;
26946;SDS011;14501;52.282;10.560;2023-01-29T06:05:06;27.35;;;14.40;;
26946;SDS011;14501;52.282;10.560;2023-01-29T06:07:32;30.67;;;15.70;;
26946;SDS011;14501;52.282;10.560;2023-01-29T06:09:57;29.00;;;15.35;;
26946;SDS011;14501;52.282;10.560;2023-01-29T06:12:23;28.90;;;15.68;;
26946;SDS011;14501;52.282;10.560;2023-01-29T06:14:50;28.70;;;15.73;;
26946;SDS011;14501;52.282;10.560;2023-01-29T06:17:15;27.42;;;14.65;;
26946;SDS011;14501;52.282;10.560;2023-01-29T06:19:41;29.35;;;15.70;;
26946;SDS011;14501;52.282;10.560;2023-01-29T06:22:06;32.33;;;13.93;;
26946;SDS011;14501;52.282;10.560;2023-01-29T06:24:32;28.52;;;15.30;;
26946;SDS011;14501;52.282;10.560;2023-01-29T06:26:57;28.55;;;15.68;;
26946;SDS011;14501;52.282;10.560;2023-01-29T06:29:23;30.00;;;16.27;;
26946;SDS011;14501;52.282;10.560;2023-01-29T06:31:49;30.00;;;15.57;;
26946;SDS011;14501;52.282;10.560;2023-01-29T06:34:14;30.15;;;15.05;;
26946;SDS011;14501;52.282;10.560;2023-01-29T06:36:40;31.88;;;14.57;;
26946;SDS011;14501;52.282;10.560;2023-01-29T06:39:06;27.08;;;15.00;;
26946;SDS011;14501;52.282;10.560;2023-01-29T06:41:31;26.65;;;14.20;;
26946;SDS011;14501;52.282;10.560;2023-01-29T06:43:57;26.83;;;15.38;;
26946;SDS011;14501;52.282;10.560;2023-01-29T06:46:23;28.75;;;15.50;;
26946;SDS011;14501;52.282;10.560;2023-01-29T06:48:48;32.80;;;14.82;;
26946;SDS011;14501;52.282;10.560;2023-01-29T06:51:14;32.35;;;16.50;;
26946;SDS011;14501;52.282;10.560;2023-01-29T06:53:39;28.95;;;15.02;;
26946;SDS011;14501;52.282;10.560;2023-01-29T06:56:05;29.20;;;15.23;;
26946;SDS011;14501;52.282;10.560;2023-01-29T06:58:32;28.10;;;14.38;;
26946;SDS011;14501;52.282;10.560;2023-01-29T07:01:04;30.23;;;15.88;;
26946;SDS011;14501;52.282;10.560;2023-01-29T07:03:31;28.35;;;14.15;;
26946;SDS011;14501;52.282;10.560;2023-01-29T07:05:56;31.77;;;15.50;;
26946;SDS011;14501;52.282;10.560;2023-01-29T07:08:22;25.42;;;14.90;;
26946;SDS011;14501;52.282;10.560;2023-01-29T07:10:48;27.60;;;14.73;;
26946;SDS011;14501;52.282;10.560;2023-01-29T07:13:14;30.25;;;15.32;;
26946;SDS011;14501;52.282;10.560;2023-01-29T07:15:40;29.92;;;15.60;;
26946;SDS011;14501;52.282;10.560;2023-01-29T07:18:06;28.65;;;15.80;;
26946;SDS011;14501;52.282;10.560;2023-01-29T07:20:36;28.58;;;15.40;;
26946;SDS011;14501;52.282;10.560;2023-01-29T07:23:07;31.48;;;16.17;;
26946;SDS011;14501;52.282;10.560;2023-01-29T07:25:36;28.83;;;14.73;;
26946;SDS011;14501;52.282;10.560;2023-01-29T07:28:02;29.27;;;14.88;;
26946;SDS011;14501;52.282;10.560;2023-01-29T07:30:28;29.77;;;15.25;;
26946;SDS011;14501;52.282;10.560;2023-01-29T07:32:54;29.40;;;15.35;;
26946;SDS011;14501;52.282;10.560;2023-01-29T07:35:19;27.73;;;15.18;;
26946;SDS011;14501;52.282;10.560;2023-01-29T07:37:48;31.17;;;15.88;;
26946;SDS011;14501;52.282;10.560;2023-01-29T07:40:14;27.13;;;15.07;;
26946;SDS011;14501;52.282;10.560;2023-01-29T07:42:40;29.83;;;15.43;;
26946;SDS011;14501;52.282;10.560;2023-01-29T07:45:08;32.17;;;15.02;;
26946;SDS011;14501;52.282;10.560;2023-01-29T07:47:34;27.67;;;15.25;;
26946;SDS011;14501;52.282;10.560;2023-01-29T07:50:00;31.45;;;15.27;;
26946;SDS011;14501;52.282;10.560;2023-01-29T07:52:27;32.70;;;15.38;;
26946;SDS011;14501;52.282;10.560;2023-01-29T07:54:54;31.67;;;16.02;;
26946;SDS011;14501;52.282;10.560;2023-01-29T07:57:20;26.65;;;14.25;;
26946;SDS011;14501;52.282;10.560;2023-01-29T07:59:45;26.67;;;14.13;;
26946;SDS011;14501;52.282;10.560;2023-01-29T08:02:11;28.95;;;14.90;;
26946;SDS011;14501;52.282;10.560;2023-01-29T08:04:37;30.75;;;15.40;;
26946;SDS011;14501;52.282;10.560;2023-01-29T08:07:02;27.35;;;14.05;;
26946;SDS011;14501;52.282;10.560;2023-01-29T08:09:29;29.45;;;15.20;;
26946;SDS011;14501;52.282;10.560;2023-01-29T08:11:55;27.48;;;14.18;;
26946;SDS011;14501;52.282;10.560;2023-01-29T08:14:21;28.60;;;15.93;;
26946;SDS011;14501;52.282;10.560;2023-01-29T08:16:48;30.65;;;15.32;;
26946;SDS011;14501;52.282;10.560;2023-01-29T08:19:14;28.48;;;15.43;;
26946;SDS011;14501;52.282;10.560;2023-01-29T08:21:40;34.17;;;15.90;;
26946;SDS011;14501;52.282;10.560;2023-01-29T08:24:05;29.77;;;16.52;;
26946;SDS011;14501;52.282;10.560;2023-01-29T08:26:31;33.42;;;16.40;;
26946;SDS011;14501;52.282;10.560;2023-01-29T08:28:57;28.52;;;15.48;;
26946;SDS011;14501;52.282;10.560;2023-01-29T08:31:22;30.42;;;16.38;;
26946;SDS011;14501;52.282;10.560;2023-01-29T08:33:48;29.83;;;15.73;;
26946;SDS011;14501;52.282;10.560;2023-01-29T08:36:14;34.08;;;17.42;;
26946;SDS011;14501;52.282;10.560;2023-01-29T08:38:39;33.10;;;16.95;;
26946;SDS011;14501;52.282;10.560;2023-01-29T08:41:05;33.67;;;17.13;;
26946;SDS011;14501;52.282;10.560;2023-01-29T08:43:31;33.97;;;17.33;;
26946;SDS011;14501;52.282;10.560;2023-01-29T08:45:57;34.67;;;16.42;;
26946;SDS011;14501;52.282;10.560;2023-01-29T08:48:22;32.60;;;16.60;;
26946;SDS011;14501;52.282;10.560;2023-01-29T08:50:49;31.98;;;16.70;;
26946;SDS011;14501;52.282;10.560;2023-01-29T08:53:15;31.33;;;16.88;;
26946;SDS011;14501;52.282;10.560;2023-01-29T08:55:40;35.55;;;16.73;;
26946;SDS011;14501;52.282;10.560;2023-01-29T08:58:06;31.38;;;15.40;;
26946;SDS011;14501;52.282;10.560;2023-01-29T09:00:34;34.15;;;17.48;;
26946;SDS011;14501;52.282;10.560;2023-01-29T09:03:00;32.88;;;15.32;;
26946;SDS011;14501;52.282;10.560;2023-01-29T09:05:26;31.42;;;16.00;;
26946;SDS011;14501;52.282;10.560;2023-01-29T09:07:52;30.60;;;16.23;;
26946;SDS011;14501;52.282;10.560;2023-01-29T09:10:20;31.65;;;16.83;;
26946;SDS011;14501;52.282;10.560;2023-01-29T09:12:45;30.67;;;15.40;;
26946;SDS011;14501;52.282;10.560;2023-01-29T09:15:11;34.17;;;16.67;;
26946;SDS011;14501;52.282;10.560;2023-01-29T09:17:36;36.35;;;17.17;;
26946;SDS011;14501;52.282;10.560;2023-01-29T09:20:03;36.10;;;17.33;;
26946;SDS011;14501;52.282;10.560;2023-01-29T09:22:31;30.63;;;15.75;;
26946;SDS011;14501;52.282;10.560;2023-01-29T09:24:57;34.55;;;16.90;;
26946;SDS011;14501;52.282;10.560;2023-01-29T09:27:23;35.47;;;16.65;;
26946;SDS011;14501;52.282;10.560;2023-01-29T09:29:49;35.08;;;16.77;;
26946;SDS011;14501;52.282;10.560;2023-01-29T09:32:15;33.65;;;17.38;;
26946;SDS011;14501;52.282;10.560;2023-01-29T09:34:40;33.38;;;17.33;;
26946;SDS011;14501;52.282;10.560;2023-01-29T09:37:06;35.72;;;17.27;;
26946;SDS011;14501;52.282;10.560;2023-01-29T09:39:31;37.08;;;17.08;;
26946;SDS011;14501;52.282;10.560;2023-01-29T09:42:16;35.42;;;16.35;;
26946;SDS011;14501;52.282;10.560;2023-01-29T09:47:29;35.67;;;17.27;;
26946;SDS011;14501;52.282;10.560;2023-01-29T09:50:00;32.13;;;17.05;;
26946;SDS011;14501;52.282;10.560;2023-01-29T09:52:40;33.75;;;16.85;;
26946;SDS011;14501;52.282;10.560;2023-01-29T09:57:55;35.15;;;16.25;;
26946;SDS011;14501;52.282;10.560;2023-01-29T10:05:57;34.30;;;18.30;;
26946;SDS011;14501;52.282;10.560;2023-01-29T10:11:25;34.05;;;16.85;;
26946;SDS011;14501;52.282;10.560;2023-01-29T10:14:26;34.50;;;16.27;;
26946;SDS011;14501;52.282;10.560;2023-01-29T10:25:41;34.83;;;17.80;;
26946;SDS011;14501;52.282;10.560;2023-01-29T10:28:17;30.77;;;17.15;;
26946;SDS011;14501;52.282;10.560;2023-01-29T10:30:59;31.00;;;16.48;;
26946;SDS011;14501;52.282;10.560;2023-01-29T10:34:13;32.95;;;16.58;;
26946;SDS011;14501;52.282;10.560;2023-01-29T10:36:22;32.58;;;16.10;;
26946;SDS011;14501;52.282;10.560;2023-01-29T10:38:56;33.78;;;17.27;;
26946;SDS011;14501;52.282;10.560;2023-01-29T10:41:39;37.78;;;17.38;;
26946;SDS011;14501;52.282;10.560;2023-01-29T10:58:14;36.70;;;17.08;;
26946;SDS011;14501;52.282;10.560;2023-01-29T11:00:48;32.85;;;16.23;;
26946;SDS011;14501;52.282;10.560;2023-01-29T11:03:24;33.03;;;16.92;;
26946;SDS011;14501;52.282;10.560;2023-01-29T11:08:21;34.80;;;16.60;;
26946;SDS011;14501;52.282;10.560;2023-01-29T11:13:56;30.63;;;15.98;;
26946;SDS011;14501;52.282;10.560;2023-01-29T11:16:29;35.58;;;16.70;;
26946;SDS011;14501;52.282;10.560;2023-01-29T11:19:00;32.70;;;17.58;;
26946;SDS011;14501;52.282;10.560;2023-01-29T11:21:27;37.72;;;17.23;;
26946;SDS011;14501;52.282;10.560;2023-01-29T11:24:35;34.72;;;16.50;;
26946;SDS011;14501;52.282;10.560;2023-01-29T11:26:43;32.53;;;16.95;;
26946;SDS011;14501;52.282;10.560;2023-01-29T11:32:11;38.00;;;18.17;;
26946;SDS011;14501;52.282;10.560;2023-01-29T11:34:55;31.67;;;15.88;;
26946;SDS011;14501;52.282;10.560;2023-01-29T11:37:44;33.17;;;15.73;;
26946;SDS011;14501;52.282;10.560;2023-01-29T11:40:32;33.15;;;17.23;;
26946;SDS011;14501;52.282;10.560;2023-01-29T11:45:43;35.90;;;17.57;;
26946;SDS011;14501;52.282;10.560;2023-01-29T11:48:16;32.55;;;17.67;;
26946;SDS011;14501;52.282;10.560;2023-01-29T11:50:51;34.22;;;16.88;;
26946;SDS011;14501;52.282;10.560;2023-01-29T11:53:30;31.15;;;15.82;;
26946;SDS011;14501;52.282;10.560;2023-01-29T11:58:31;31.25;;;15.27;;
26946;SDS011;14501;52.282;10.560;2023-01-29T12:00:58;31.65;;;15.50;;
26946;SDS011;14501;52.282;10.560;2023-01-29T12:03:30;39.25;;;16.85;;
26946;SDS011;14501;52.282;10.560;2023-01-29T12:06:39;30.63;;;16.40;;
26946;SDS011;14501;52.282;10.560;2023-01-29T12:08:53;33.75;;;16.98;;
26946;SDS011;14501;52.282;10.560;2023-01-29T12:13:58;31.00;;;14.70;;
26946;SDS011;14501;52.282;10.560;2023-01-29T12:16:32;34.22;;;16.60;;
26946;SDS011;14501;52.282;10.560;2023-01-29T12:19:08;36.13;;;16.73;;
26946;SDS011;14501;52.282;10.560;2023-01-29T12:21:51;34.53;;;17.15;;
26946;SDS011;14501;52.282;10.560;2023-01-29T12:32:11;36.50;;;16.27;;
26946;SDS011;14501;52.282;10.560;2023-01-29T12:34:54;33.58;;;16.80;;
26946;SDS011;14501;52.282;10.560;2023-01-29T12:37:44;30.80;;;16.20;;
26946;SDS011;14501;52.282;10.560;2023-01-29T12:40:26;33.03;;;15.25;;
26946;SDS011;14501;52.282;10.560;2023-01-29T12:43:00;34.55;;;15.43;;
26946;SDS011;14501;52.282;10.560;2023-01-29T12:45:31;31.17;;;15.40;;
26946;SDS011;14501;52.282;10.560;2023-01-29T12:48:00;31.50;;;16.23;;
26946;SDS011;14501;52.282;10.560;2023-01-29T12:50:34;32.72;;;16.27;;
26946;SDS011;14501;52.282;10.560;2023-01-29T12:53:04;29.77;;;15.30;;
26946;SDS011;14501;52.282;10.560;2023-01-29T12:55:39;30.25;;;16.17;;
26946;SDS011;14501;52.282;10.560;2023-01-29T12:58:09;30.80;;;15.32;;
26946;SDS011;14501;52.282;10.560;2023-01-29T13:00:39;30.65;;;15.00;;
26946;SDS011;14501;52.282;10.560;2023-01-29T13:05:50;31.35;;;15.55;;
26946;SDS011;14501;52.282;10.560;2023-01-29T13:08:25;27.58;;;14.85;;
26946;SDS011;14501;52.282;10.560;2023-01-29T13:11:01;25.80;;;13.55;;
26946;SDS011;14501;52.282;10.560;2023-01-29T13:16:02;28.35;;;14.68;;
26946;SDS011;14501;52.282;10.560;2023-01-29T13:21:32;28.83;;;14.82;;
26946;SDS011;14501;52.282;10.560;2023-01-29T13:24:11;30.55;;;14.55;;
26946;SDS011;14501;52.282;10.560;2023-01-29T13:26:43;30.23;;;15.50;;
26946;SDS011;14501;52.282;10.560;2023-01-29T13:29:43;27.60;;;14.98;;
26946;SDS011;14501;52.282;10.560;2023-01-29T13:32:02;27.98;;;14.10;;
26946;SDS011;14501;52.282;10.560;2023-01-29T13:34:30;27.15;;;13.55;;
26946;SDS011;14501;52.282;10.560;2023-01-29T13:36:59;25.70;;;13.23;;
26946;SDS011;14501;52.282;10.560;2023-01-29T13:39:31;27.65;;;14.13;;
26946;SDS011;14501;52.282;10.560;2023-01-29T13:42:02;27.60;;;14.95;;
26946;SDS011;14501;52.282;10.560;2023-01-29T13:44:38;24.65;;;13.23;;
26946;SDS011;14501;52.282;10.560;2023-01-29T13:47:06;23.15;;;13.00;;
26946;SDS011;14501;52.282;10.560;2023-01-29T13:49:36;23.65;;;12.23;;
26946;SDS011;14501;52.282;10.560;2023-01-29T13:52:45;25.88;;;13.68;;
26946;SDS011;14501;52.282;10.560;2023-01-29T14:03:31;26.30;;;13.40;;
26946;SDS011;14501;52.282;10.560;2023-01-29T14:13:44;23.42;;;12.40;;
26946;SDS011;14501;52.282;10.560;2023-01-29T14:18:44;25.98;;;12.57;;
26946;SDS011;14501;52.282;10.560;2023-01-29T14:23:47;24.17;;;11.38;;
26946;SDS011;14501;52.282;10.560;2023-01-29T14:29:06;20.73;;;10.98;;
26946;SDS011;14501;52.282;10.560;2023-01-29T14:31:57;18.80;;;10.63;;
26946;SDS011;14501;52.282;10.560;2023-01-29T14:34:42;18.50;;;10.23;;
26946;SDS011;14501;52.282;10.560;2023-01-29T14:43:43;17.83;;;10.20;;
26946;SDS011;14501;52.282;10.560;2023-01-29T14:45:44;19.80;;;10.27;;
26946;SDS011;14501;52.282;10.560;2023-01-29T14:53:08;21.08;;;11.05;;
26946;SDS011;14501;52.282;10.560;2023-01-29T14:55:49;21.00;;;10.93;;
26946;SDS011;14501;52.282;10.560;2023-01-29T14:59:03;21.00;;;10.32;;
26946;SDS011;14501;52.282;10.560;2023-01-29T15:01:13;18.63;;;10.30;;
26946;SDS011;14501;52.282;10.560;2023-01-29T15:03:44;20.77;;;10.38;;
26946;SDS011;14501;52.282;10.560;2023-01-29T15:06:28;21.63;;;11.50;;
26946;SDS011;14501;52.282;10.560;2023-01-29T15:12:37;18.98;;;10.30;;
26946;SDS011;14501;52.282;10.560;2023-01-29T15:15:15;20.75;;;11.38;;
26946;SDS011;14501;52.282;10.560;2023-01-29T15:18:00;17.92;;;10.50;;
26946;SDS011;14501;52.282;10.560;2023-01-29T15:20:43;20.45;;;11.70;;
26946;SDS011;14501;52.282;10.560;2023-01-29T15:23:52;21.55;;;11.65;;
26946;SDS011;14501;52.282;10.560;2023-01-29T15:25:59;20.42;;;10.95;;
26946;SDS011;14501;52.282;10.560;2023-01-29T15:28:27;19.67;;;11.57;;
26946;SDS011;14501;52.282;10.560;2023-01-29T15:30:58;20.20;;;11.07;;
26946;SDS011;14501;52.282;10.560;2023-01-29T15:33:28;18.17;;;10.23;;
26946;SDS011;14501;52.282;10.560;2023-01-29T15:35:56;19.50;;;10.73;;
26946;SDS011;14501;52.282;10.560;2023-01-29T15:38:27;17.05;;;9.55;;
26946;SDS011;14501;52.282;10.560;2023-01-29T15:40:54;18.55;;;10.52;;
26946;SDS011;14501;52.282;10.560;2023-01-29T15:43:28;19.85;;;10.45;;
26946;SDS011;14501;52.282;10.560;2023-01-29T15:46:06;17.02;;;9.13;;
26946;SDS011;14501;52.282;10.560;2023-01-29T15:48:41;19.13;;;10.45;;
26946;SDS011;14501;52.282;10.560;2023-01-29T15:51:09;17.38;;;9.68;;
26946;SDS011;14501;52.282;10.560;2023-01-29T15:54:24;20.10;;;10.30;;
26946;SDS011;14501;52.282;10.560;2023-01-29T15:56:37;15.90;;;9.20;;
26946;SDS011;14501;52.282;10.560;2023-01-29T15:59:07;16.30;;;9.93;;
26946;SDS011;14501;52.282;10.560;2023-01-29T16:01:43;18.00;;;10.70;;
26946;SDS011;14501;52.282;10.560;2023-01-29T16:04:10;17.08;;;9.80;;
26946;SDS011;14501;52.282;10.560;2023-01-29T16:06:40;18.52;;;10.20;;
26946;SDS011;14501;52.282;10.560;2023-01-29T16:09:07;22.05;;;11.45;;
26946;SDS011;14501;52.282;10.560;2023-01-29T16:11:39;21.55;;;12.07;;
26946;SDS011;14501;52.282;10.560;2023-01-29T16:14:05;18.25;;;10.68;;
26946;SDS011;14501;52.282;10.560;2023-01-29T16:16:32;18.73;;;10.52;;
26946;SDS011;14501;52.282;10.560;2023-01-29T16:18:57;20.50;;;11.32;;
26946;SDS011;14501;52.282;10.560;2023-01-29T16:21:33;18.83;;;11.50;;
26946;SDS011;14501;52.282;10.560;2023-01-29T16:24:04;20.75;;;10.93;;
26946;SDS011;14501;52.282;10.560;2023-01-29T16:26:36;25.90;;;12.13;;
26946;SDS011;14501;52.282;10.560;2023-01-29T16:29:06;22.50;;;12.23;;
26946;SDS011;14501;52.282;10.560;2023-01-29T16:31:34;19.92;;;11.60;;
26946;SDS011;14501;52.282;10.560;2023-01-29T16:34:13;21.23;;;12.00;;
26946;SDS011;14501;52.282;10.560;2023-01-29T16:36:47;20.92;;;12.68;;
26946;SDS011;14501;52.282;10.560;2023-01-29T16:39:16;20.98;;;11.88;;
26946;SDS011;14501;52.282;10.560;2023-01-29T16:41:45;23.00;;;12.15;;
26946;SDS011;14501;52.282;10.560;2023-01-29T16:44:49;23.42;;;12.07;;
26946;SDS011;14501;52.282;10.560;2023-01-29T16:47:27;22.65;;;11.40;;
26946;SDS011;14501;52.282;10.560;2023-01-29T16:49:59;22.80;;;12.15;;
26946;SDS011;14501;52.282;10.560;2023-01-29T16:54:57;20.85;;;12.00;;
26946;SDS011;14501;52.282;10.560;2023-01-29T16:57:45;23.55;;;12.48;;
26946;SDS011;14501;52.282;10.560;2023-01-29T17:00:25;23.52;;;12.57;;
26946;SDS011;14501;52.282;10.560;2023-01-29T17:03:03;23.13;;;12.65;;
26946;SDS011;14501;52.282;10.560;2023-01-29T17:05:32;22.25;;;13.90;;
26946;SDS011;14501;52.282;10.560;2023-01-29T17:07:59;20.90;;;12.23;;
26946;SDS011;14501;52.282;10.560;2023-01-29T17:10:26;23.65;;;12.35;;
26946;SDS011;14501;52.282;10.560;2023-01-29T17:18:18;18.52;;;11.15;;
26946;SDS011;14501;52.282;10.560;2023-01-29T17:20:45;22.05;;;10.82;;
26946;SDS011;14501;52.282;10.560;2023-01-29T17:23:11;18.40;;;10.65;;
26946;SDS011;14501;52.282;10.560;2023-01-29T17:25:37;20.40;;;10.63;;
26946;SDS011;14501;52.282;10.560;2023-01-29T17:28:03;22.08;;;11.18;;
26946;SDS011;14501;52.282;10.560;2023-01-29T17:30:30;21.58;;;10.63;;